createdAt,value
2019-02-07T00:01:37.654Z,98102.47
2019-02-07T00:03:39.341Z,98140.23
2019-02-07T00:05:41.513Z,98143.48
2019-02-07T00:07:43.155Z,98134.91
2019-02-07T00:09:44.980Z,98139.52
2019-02-07T00:11:46.747Z,98132.27
2019-02-07T00:13:48.420Z,98130.77
2019-02-07T00:15:50.067Z,98129.86
2019-02-07T00:17:52.286Z,98136.69
2019-02-07T00:19:53.940Z,98131.69
2019-02-07T00:21:55.583Z,98130.03
2019-02-07T00:23:57.413Z,98123.27
2019-02-07T00:25:59.902Z,98128.91
2019-02-07T00:28:01.543Z,98119.28
2019-02-07T00:30:03.254Z,98123.72
2019-02-07T00:32:04.931Z,98119.58
2019-02-07T00:34:06.704Z,98118.85
2019-02-07T00:36:08.347Z,98110.08
2019-02-07T00:38:10.157Z,98111.31
2019-02-07T00:40:11.930Z,98105.72
2019-02-07T00:42:13.562Z,98100.61
2019-02-07T00:44:15.189Z,98099.02
2019-02-07T00:46:17.639Z,98102.42
2019-02-07T00:48:19.319Z,98095.54
2019-02-07T00:50:21.024Z,98057.25
2019-02-07T00:52:22.672Z,98086.25
2019-02-07T00:54:24.304Z,98080.33
2019-02-07T00:56:25.986Z,98082.88
2019-02-07T00:58:27.628Z,98087.58
2019-02-07T01:00:29.543Z,98079.11
2019-02-07T01:02:31.269Z,98078.33
2019-02-07T01:04:32.919Z,98072.80
2019-02-07T01:06:34.817Z,98072.73
2019-02-07T01:08:36.491Z,98066.36
2019-02-07T01:10:38.178Z,98060.81
2019-02-07T01:12:39.820Z,98063.38
2019-02-07T01:14:41.470Z,98062.58
2019-02-07T01:16:43.214Z,98053.70
2019-02-07T01:18:44.963Z,98066.46
2019-02-07T01:20:46.638Z,98053.34
2019-02-07T01:22:48.309Z,98054.17
2019-02-07T01:24:50.020Z,98048.67
2019-02-07T01:26:51.945Z,98050.80
2019-02-07T01:28:53.744Z,98055.04
2019-02-07T01:30:55.383Z,98071.63
2019-02-07T01:32:57.089Z,98043.55
2019-02-07T01:34:58.867Z,98040.59
2019-02-07T01:37:00.522Z,98035.97
2019-02-07T01:39:02.185Z,98027.09
2019-02-07T01:41:03.827Z,98025.44
2019-02-07T01:43:05.464Z,98015.71
2019-02-07T01:45:12.983Z,98004.23
2019-02-07T01:47:08.909Z,98005.98
2019-02-07T01:49:10.570Z,98007.69
2019-02-07T01:51:12.279Z,98000.08
2019-02-07T01:53:14.291Z,97990.98
2019-02-07T01:55:15.941Z,97986.22
2019-02-07T01:57:18.303Z,97987.51
2019-02-07T01:59:20.051Z,97987.94
2019-02-07T02:01:21.695Z,97988.42
2019-02-07T02:03:23.331Z,97974.84
2019-02-07T02:05:24.976Z,97969.20
2019-02-07T02:07:27.342Z,97969.31
2019-02-07T02:09:28.983Z,97956.63
2019-02-07T02:11:30.646Z,97946.70
2019-02-07T02:13:32.515Z,97947.14
2019-02-07T02:15:34.187Z,97943.36
2019-02-07T02:17:36.067Z,97952.37
2019-02-07T02:19:37.843Z,97954.92
2019-02-07T02:21:39.512Z,97951.89
2019-02-07T02:23:41.294Z,97953.64
2019-02-07T02:25:43.007Z,97950.73
2019-02-07T02:27:44.845Z,97956.68
2019-02-07T02:29:46.483Z,97943.54
2019-02-07T02:31:48.119Z,97939.28
2019-02-07T02:33:49.787Z,97938.88
2019-02-07T02:35:51.442Z,97936.19
2019-02-07T02:37:53.082Z,97935.28
2019-02-07T02:39:54.727Z,97923.86
2019-02-07T02:41:56.627Z,97923.86
2019-02-07T02:43:58.283Z,97922.52
2019-02-07T02:46:00.013Z,97916.55
2019-02-07T02:48:01.688Z,97916.07
2019-02-07T02:50:03.343Z,97911.80
2019-02-07T02:52:05.007Z,97902.44
2019-02-07T02:54:06.674Z,97902.44
2019-02-07T02:56:08.331Z,97898.17
2019-02-07T02:58:09.994Z,97893.45
2019-02-07T03:00:11.712Z,97894.73
2019-02-07T03:02:14.122Z,97887.97
2019-02-07T03:04:15.904Z,97883.23
2019-02-07T03:06:37.534Z,97883.70
2019-02-07T03:08:39.556Z,97877.75
2019-02-07T03:10:56.121Z,97880.74
2019-02-07T03:12:58.491Z,97867.17
2019-02-07T03:15:17.619Z,97865.35
2019-02-07T03:17:24.200Z,97866.64
2019-02-07T03:19:44.523Z,97865.06
2019-02-07T03:21:46.983Z,97865.48
2019-02-07T03:23:51.552Z,97859.55
2019-02-07T03:26:14.254Z,97863.86
2019-02-07T03:28:22.404Z,97861.42
2019-02-07T03:30:41.822Z,97870.73
2019-02-07T03:32:44.585Z,97869.45
2019-02-07T03:34:49.084Z,97866.84
2019-02-07T03:37:11.586Z,97868.05
2019-02-07T03:39:19.892Z,97859.11
2019-02-07T03:41:23.073Z,97848.44
2019-02-07T03:43:40.335Z,97849.25
2019-02-07T03:45:46.148Z,97844.06
2019-02-07T03:47:49.739Z,97843.15
2019-02-07T03:49:57.230Z,97839.75
2019-02-07T03:51:59.354Z,97845.69
2019-02-07T03:54:15.880Z,97834.58
2019-02-07T03:56:32.414Z,97827.38
2019-02-07T03:58:52.756Z,97831.16
2019-02-07T04:01:10.005Z,97829.89
2019-02-07T04:03:17.542Z,97828.59
2019-02-07T04:05:29.107Z,97812.44
2019-02-07T04:07:39.440Z,97809.09
2019-02-07T04:09:57.724Z,97809.11
2019-02-07T04:12:05.437Z,97797.41
2019-02-07T04:14:22.807Z,97798.14
2019-02-07T04:16:40.137Z,97803.67
2019-02-07T04:18:58.591Z,97794.39
2019-02-07T04:21:04.219Z,97790.60
2019-02-07T04:23:23.741Z,97781.25
2019-02-07T04:25:28.788Z,97786.80
2019-02-07T04:27:32.042Z,97781.70
2019-02-07T04:29:36.440Z,97777.05
2019-02-07T04:31:41.706Z,97762.44
2019-02-07T04:33:49.099Z,97760.67
2019-02-07T04:35:53.843Z,97757.81
2019-02-07T04:37:58.067Z,97740.89
2019-02-07T04:40:03.360Z,97737.94
2019-02-07T04:42:06.449Z,97740.55
2019-02-07T04:44:13.699Z,97735.45
2019-02-07T04:46:27.200Z,97724.33
2019-02-07T04:48:25.313Z,97726.44
2019-02-07T04:50:27.864Z,97687.82
2019-02-07T04:52:35.170Z,97717.94
2019-02-07T04:54:40.418Z,97717.94
2019-02-07T04:56:42.060Z,97711.55
2019-02-07T04:58:45.346Z,97708.16
2019-02-07T05:01:06.804Z,97711.07
2019-02-07T05:03:23.374Z,97706.09
2019-02-07T05:05:25.125Z,97704.05
2019-02-07T05:07:37.768Z,97694.74
2019-02-07T05:09:46.502Z,97694.96
2019-02-07T05:11:48.625Z,97683.27
2019-02-07T05:13:53.881Z,97690.48
2019-02-07T05:15:55.598Z,97694.91
2019-02-07T05:18:01.319Z,97699.59
2019-02-07T05:20:05.514Z,97702.98
2019-02-07T05:22:07.493Z,97700.00
2019-02-07T05:24:27.182Z,97705.05
2019-02-07T05:26:29.765Z,97699.93
2019-02-07T05:28:36.409Z,97698.17
2019-02-07T05:30:48.072Z,97691.77
2019-02-07T05:33:08.751Z,97689.81
2019-02-07T05:35:20.407Z,97685.89
2019-02-07T05:37:22.047Z,97687.95
2019-02-07T05:39:29.439Z,97680.64
2019-02-07T05:41:34.729Z,97691.64
2019-02-07T05:43:54.267Z,97694.13
2019-02-07T05:46:01.563Z,97686.81
2019-02-07T05:48:05.847Z,97687.61
2019-02-07T05:50:13.248Z,97687.17
2019-02-07T05:52:17.371Z,97693.41
2019-02-07T05:54:24.757Z,97685.84
2019-02-07T05:56:26.905Z,97684.64
2019-02-07T05:58:44.232Z,97684.33
2019-02-07T06:00:51.622Z,97683.50
2019-02-07T06:02:53.747Z,97681.80
2019-02-07T06:04:59.833Z,97677.17
2019-02-07T06:07:05.376Z,97681.45
2019-02-07T06:09:25.828Z,97675.50
2019-02-07T06:11:44.137Z,97678.91
2019-02-07T06:13:50.315Z,97675.41
2019-02-07T06:15:56.958Z,97672.86
2019-02-07T06:18:01.792Z,97673.30
2019-02-07T06:20:08.537Z,97671.57
2019-02-07T06:22:14.761Z,97666.90
2019-02-07T06:24:17.815Z,97668.20
2019-02-07T06:26:30.217Z,97663.56
2019-02-07T06:28:50.623Z,97668.61
2019-02-07T06:30:55.236Z,97671.07
2019-02-07T06:33:13.689Z,97668.90
2019-02-07T06:35:19.051Z,97664.28
2019-02-07T06:37:22.131Z,97663.78
2019-02-07T06:39:24.288Z,97657.39
2019-02-07T06:41:35.843Z,97664.62
2019-02-07T06:43:53.323Z,97662.07
2019-02-07T06:46:06.711Z,97658.17
2019-02-07T06:48:22.354Z,97665.39
2019-02-07T06:50:24.029Z,97664.41
2019-02-07T06:52:29.279Z,97660.16
2019-02-07T06:54:36.574Z,97657.59
2019-02-07T06:56:43.794Z,97653.27
2019-02-07T06:58:47.271Z,97653.69
2019-02-07T07:00:54.595Z,97651.44
2019-02-07T07:03:16.019Z,97652.28
2019-02-07T07:05:20.311Z,97645.95
2019-02-07T07:07:40.656Z,97649.45
2019-02-07T07:09:58.098Z,97641.44
2019-02-07T07:12:00.390Z,97639.38
2019-02-07T07:14:05.560Z,97638.09
2019-02-07T07:16:12.787Z,97637.23
2019-02-07T07:18:14.422Z,97638.97
2019-02-07T07:20:21.919Z,97640.72
2019-02-07T07:22:40.295Z,97630.30
2019-02-07T07:24:47.574Z,97629.87
2019-02-07T07:26:49.850Z,97628.61
2019-02-07T07:29:06.368Z,97627.38
2019-02-07T07:31:11.850Z,97627.80
2019-02-07T07:33:18.000Z,97618.44
2019-02-07T07:35:20.509Z,97608.76
2019-02-07T07:37:32.978Z,97599.89
2019-02-07T07:39:54.315Z,97604.05
2019-02-07T07:42:13.694Z,97596.69
2019-02-07T07:44:19.903Z,97594.98
2019-02-07T07:46:30.273Z,97586.47
2019-02-07T07:48:52.926Z,97581.36
2019-02-07T07:51:06.472Z,97583.91
2019-02-07T07:53:23.980Z,97583.48
2019-02-07T07:55:30.075Z,97579.23
2019-02-07T07:57:49.150Z,97569.86
2019-02-07T08:00:09.626Z,97566.83
2019-02-07T08:02:11.884Z,97562.50
2019-02-07T08:04:28.460Z,97557.44
2019-02-07T08:06:33.591Z,97569.28
2019-02-07T08:08:35.226Z,97561.69
2019-02-07T08:10:52.703Z,97558.45
2019-02-07T08:12:56.079Z,97533.03
2019-02-07T08:15:03.348Z,97546.77
2019-02-07T08:17:05.001Z,97556.42
2019-02-07T08:19:09.772Z,97539.98
2019-02-07T08:21:17.115Z,97547.06
2019-02-07T08:23:24.992Z,97543.26
2019-02-07T08:25:30.370Z,97521.89
2019-02-07T08:27:50.826Z,97540.68
2019-02-07T08:29:52.953Z,97528.77
2019-02-07T08:32:00.242Z,97524.85
2019-02-07T08:34:21.760Z,97521.36
2019-02-07T08:36:29.140Z,97507.06
2019-02-07T08:38:31.688Z,97510.95
2019-02-07T08:40:40.996Z,97522.03
2019-02-07T08:42:47.564Z,97517.19
2019-02-07T08:45:04.930Z,97519.83
2019-02-07T08:47:09.257Z,97520.25
2019-02-07T08:49:16.643Z,97511.11
2019-02-07T08:51:23.948Z,97505.31
2019-02-07T08:53:26.198Z,97493.64
2019-02-07T08:55:42.686Z,97497.11
2019-02-07T08:58:00.187Z,97489.41
2019-02-07T09:00:07.491Z,97486.63
2019-02-07T09:02:09.811Z,97495.16
2019-02-07T09:04:17.175Z,97481.49
2019-02-07T09:06:19.769Z,97483.52
2019-02-07T09:08:27.284Z,97494.36
2019-02-07T09:10:34.667Z,97506.61
2019-02-07T09:12:51.394Z,97498.44
2019-02-07T09:14:58.608Z,97495.42
2019-02-07T09:17:01.188Z,97481.72
2019-02-07T09:19:21.621Z,97475.23
2019-02-07T09:21:41.095Z,97480.13
2019-02-07T09:23:58.377Z,97470.59
2019-02-07T09:26:19.833Z,97473.38
2019-02-07T09:28:37.224Z,97459.63
2019-02-07T09:30:39.751Z,97475.30
2019-02-07T09:32:58.036Z,97464.96
2019-02-07T09:35:16.309Z,97471.67
2019-02-07T09:37:23.651Z,97479.36
2019-02-07T09:39:41.142Z,97468.18
2019-02-07T09:41:43.686Z,97478.50
2019-02-07T09:44:01.117Z,97473.78
2019-02-07T09:46:08.575Z,97466.66
2019-02-07T09:48:31.011Z,97465.55
2019-02-07T09:50:47.535Z,97472.55
2019-02-07T09:52:50.082Z,97468.05
2019-02-07T09:55:09.370Z,97462.95
2019-02-07T09:57:11.022Z,97460.14
2019-02-07T09:59:16.208Z,97465.39
2019-02-07T10:01:29.834Z,97468.36
2019-02-07T10:03:41.430Z,97459.18
2019-02-07T10:05:46.917Z,97463.59
2019-02-07T10:07:49.207Z,97459.47
2019-02-07T10:09:54.906Z,97478.02
2019-02-07T10:11:58.036Z,97487.50
2019-02-07T10:14:15.487Z,97497.42
2019-02-07T10:16:20.643Z,97500.80
2019-02-07T10:18:40.036Z,97504.38
2019-02-07T10:20:58.327Z,97507.80
2019-02-07T10:23:16.634Z,97513.79
2019-02-07T10:25:37.078Z,97512.92
2019-02-07T10:27:39.345Z,97513.66
2019-02-07T10:29:51.787Z,97503.66
2019-02-07T10:31:53.437Z,97525.80
2019-02-07T10:34:10.632Z,97511.55
2019-02-07T10:36:12.903Z,97520.38
2019-02-07T10:38:21.500Z,97514.52
2019-02-07T10:40:38.074Z,97500.09
2019-02-07T10:42:41.240Z,97507.89
2019-02-07T10:44:49.526Z,97497.53
2019-02-07T10:46:53.977Z,97502.05
2019-02-07T10:48:56.360Z,97499.70
2019-02-07T10:51:02.497Z,97500.22
2019-02-07T10:53:06.742Z,97509.37
2019-02-07T10:55:21.199Z,97512.38
2019-02-07T10:57:28.515Z,97504.69
2019-02-07T10:59:31.607Z,97484.44
2019-02-07T11:01:36.071Z,97481.05
2019-02-07T11:03:53.542Z,97486.61
2019-02-07T11:06:03.702Z,97476.14
2019-02-07T11:08:10.924Z,97476.91
2019-02-07T11:10:13.542Z,97475.98
2019-02-07T11:12:16.947Z,97470.50
2019-02-07T11:14:28.467Z,97475.35
2019-02-07T11:16:35.680Z,97476.52
2019-02-07T11:18:56.178Z,97472.41
2019-02-07T11:21:01.253Z,97463.02
2019-02-07T11:23:09.405Z,97450.31
2019-02-07T11:25:13.664Z,97461.02
2019-02-07T11:27:18.057Z,97461.13
2019-02-07T11:29:40.520Z,97462.11
2019-02-07T11:31:42.177Z,97458.77
2019-02-07T11:33:47.479Z,97464.62
2019-02-07T11:36:03.995Z,97467.70
2019-02-07T11:38:06.505Z,97458.46
2019-02-07T11:40:12.639Z,97464.05
2019-02-07T11:42:19.039Z,97469.65
2019-02-07T11:44:22.286Z,97460.78
2019-02-07T11:46:37.118Z,97468.94
2019-02-07T11:48:37.657Z,97463.34
2019-02-07T11:50:44.855Z,97454.04
2019-02-07T11:52:47.946Z,97442.99
2019-02-07T11:55:00.357Z,97447.51
2019-02-07T11:57:05.658Z,97442.77
2019-02-07T11:59:10.193Z,97438.59
2019-02-07T12:01:13.590Z,97434.34
2019-02-07T12:03:16.085Z,97431.28
2019-02-07T12:05:19.528Z,97436.80
2019-02-07T12:07:26.702Z,97434.14
2019-02-07T12:09:33.991Z,97440.41
2019-02-07T12:11:40.080Z,97442.39
2019-02-07T12:13:58.513Z,97428.20
2019-02-07T12:16:02.877Z,97430.67
2019-02-07T12:18:07.910Z,97422.87
2019-02-07T12:20:14.514Z,97417.57
2019-02-07T12:22:31.786Z,97416.95
2019-02-07T12:24:33.431Z,97419.86
2019-02-07T12:26:51.771Z,97403.66
2019-02-07T12:29:09.018Z,97403.20
2019-02-07T12:31:29.351Z,97401.59
2019-02-07T12:33:31.769Z,97412.34
2019-02-07T12:35:35.246Z,97407.66
2019-02-07T12:37:53.662Z,97400.84
2019-02-07T12:39:58.716Z,97401.45
2019-02-07T12:42:00.318Z,97394.70
2019-02-07T12:44:06.390Z,97404.53
2019-02-07T12:46:09.464Z,97400.38
2019-02-07T12:48:16.628Z,97405.59
2019-02-07T12:50:18.273Z,97395.04
2019-02-07T12:52:39.701Z,97381.85
2019-02-07T12:54:43.951Z,97397.33
2019-02-07T12:56:45.632Z,97393.63
2019-02-07T12:58:51.968Z,97400.94
2019-02-07T13:00:59.268Z,97410.75
2019-02-07T13:03:06.467Z,97396.80
2019-02-07T13:05:14.517Z,97400.22
2019-02-07T13:07:21.959Z,97406.23
2019-02-07T13:09:23.634Z,97400.28
2019-02-07T13:11:40.116Z,97403.78
2019-02-07T13:13:47.244Z,97378.23
2019-02-07T13:15:54.695Z,97397.83
2019-02-07T13:18:02.879Z,97411.09
2019-02-07T13:20:08.198Z,97404.28
2019-02-07T13:22:25.540Z,97397.02
2019-02-07T13:24:31.865Z,97400.44
2019-02-07T13:26:51.151Z,97391.38
2019-02-07T13:29:09.676Z,97395.15
2019-02-07T13:31:26.246Z,97384.50
2019-02-07T13:33:29.396Z,97385.78
2019-02-07T13:35:36.531Z,97371.70
2019-02-07T13:37:44.595Z,97381.03
2019-02-07T13:39:52.057Z,97372.99
2019-02-07T13:41:56.149Z,97364.06
2019-02-07T13:44:07.688Z,97357.53
2019-02-07T13:46:10.081Z,97351.86
2019-02-07T13:48:28.359Z,97348.73
2019-02-07T13:50:32.652Z,97348.22
2019-02-07T13:52:39.279Z,97340.02
2019-02-07T13:54:43.408Z,97346.23
2019-02-07T13:57:01.807Z,97344.56
2019-02-07T13:59:19.216Z,97347.53
2019-02-07T14:01:30.734Z,97349.98
2019-02-07T14:03:34.808Z,97348.20
2019-02-07T14:05:42.264Z,97348.87
2019-02-07T14:08:00.496Z,97340.67
2019-02-07T14:10:02.895Z,97350.29
2019-02-07T14:12:08.890Z,97353.53
2019-02-07T14:14:11.432Z,97332.00
2019-02-07T14:16:18.893Z,97354.52
2019-02-07T14:18:22.983Z,97358.25
2019-02-07T14:20:26.423Z,97353.78
2019-02-07T14:22:28.504Z,97352.41
2019-02-07T14:24:36.179Z,97356.15
2019-02-07T14:26:38.755Z,97363.70
2019-02-07T14:28:43.817Z,97362.75
2019-02-07T14:30:51.291Z,97363.57
2019-02-07T14:32:54.708Z,97358.42
2019-02-07T14:35:01.975Z,97356.13
2019-02-07T14:37:19.216Z,97361.63
2019-02-07T14:39:29.466Z,97365.83
2019-02-07T14:41:45.784Z,97367.97
2019-02-07T14:43:48.279Z,97375.52
2019-02-07T14:46:05.688Z,97370.75
2019-02-07T14:48:07.314Z,97377.20
2019-02-07T14:50:14.846Z,97363.14
2019-02-07T14:52:10.569Z,97359.29
2019-02-07T14:54:12.219Z,97357.87
2019-02-07T14:56:13.831Z,97360.89
2019-02-07T14:58:15.434Z,97359.23
2019-02-07T15:00:17.075Z,97358.01
2019-02-07T15:02:18.682Z,97355.48
2019-02-07T15:04:20.319Z,97324.70
2019-02-07T15:06:21.924Z,97357.28
2019-02-07T15:08:23.526Z,97339.42
2019-02-07T15:10:25.204Z,97359.61
2019-02-07T15:12:26.842Z,97365.14
2019-02-07T15:14:28.489Z,97363.95
2019-02-07T15:16:30.142Z,97348.90
2019-02-07T15:18:31.745Z,97358.95
2019-02-07T15:20:33.349Z,97362.03
2019-02-07T15:22:35.017Z,97363.39
2019-02-07T15:24:36.665Z,97365.16
2019-02-07T15:26:38.281Z,97364.77
2019-02-07T15:28:39.910Z,97369.19
2019-02-07T15:30:41.537Z,97363.23
2019-02-07T15:32:43.178Z,97372.20
2019-02-07T15:34:44.783Z,97363.70
2019-02-07T15:36:46.387Z,97368.78
2019-02-07T15:38:47.979Z,97373.91
2019-02-07T15:40:49.587Z,97372.29
2019-02-07T15:42:51.220Z,97379.50
2019-02-07T15:44:52.852Z,97379.50
2019-02-07T15:46:54.449Z,97379.08
2019-02-07T15:48:56.176Z,97380.71
2019-02-07T15:50:57.777Z,97381.06
2019-02-07T15:52:59.401Z,97379.78
2019-02-07T15:55:01.045Z,97380.17
2019-02-07T15:57:02.703Z,97374.22
2019-02-07T15:59:06.794Z,97376.27
2019-02-07T16:01:13.305Z,97374.56
2019-02-07T16:03:14.915Z,97371.12
2019-02-07T16:05:16.556Z,97375.81
2019-02-07T16:07:18.183Z,97376.56
2019-02-07T16:09:19.818Z,97384.94
2019-02-07T16:11:21.424Z,97380.69
2019-02-07T16:13:23.087Z,97373.81
2019-02-07T16:15:24.742Z,97382.33
2019-02-07T16:17:26.346Z,97361.80
2019-02-07T16:19:27.960Z,97381.06
2019-02-07T16:21:29.568Z,97381.05
2019-02-07T16:23:31.184Z,97382.73
2019-02-07T16:25:32.806Z,97384.45
2019-02-07T16:27:34.421Z,97383.01
2019-02-07T16:29:36.035Z,97392.03
2019-02-07T16:31:37.648Z,97400.63
2019-02-07T16:33:39.362Z,97398.51
2019-02-07T16:35:40.972Z,97403.17
2019-02-07T16:37:42.614Z,97399.34
2019-02-07T16:39:44.223Z,97404.48
2019-02-07T16:41:45.833Z,97403.23
2019-02-07T16:43:47.472Z,97403.22
2019-02-07T16:45:49.087Z,97419.41
2019-02-07T16:47:50.689Z,97415.58
2019-02-07T16:49:52.448Z,97413.92
2019-02-07T16:51:54.056Z,97413.48
2019-02-07T16:53:55.657Z,97412.30
2019-02-07T16:55:57.270Z,97419.94
2019-02-07T16:57:58.868Z,97425.83
2019-02-07T17:00:00.577Z,97425.41
2019-02-07T17:02:02.733Z,97423.36
2019-02-07T17:04:04.374Z,97422.97
2019-02-07T17:06:05.988Z,97422.59
2019-02-07T17:08:07.576Z,97425.48
2019-02-07T17:10:09.174Z,97425.84
2019-02-07T17:12:10.794Z,97432.22
2019-02-07T17:14:12.415Z,97432.22
2019-02-07T17:16:14.121Z,97439.45
2019-02-07T17:18:15.697Z,97436.83
2019-02-07T17:20:17.290Z,97433.89
2019-02-07T17:22:18.903Z,97439.39
2019-02-07T17:24:20.558Z,97441.95
2019-02-07T17:26:22.164Z,97446.13
2019-02-07T17:28:23.769Z,97445.67
2019-02-07T17:30:25.379Z,97443.99
2019-02-07T17:32:26.997Z,97430.63
2019-02-07T17:34:28.636Z,97443.14
2019-02-07T17:36:30.259Z,97434.94
2019-02-07T17:38:31.898Z,97439.28
2019-02-07T17:40:33.503Z,97439.63
2019-02-07T17:42:35.116Z,97438.02
2019-02-07T17:44:37.850Z,97441.00
2019-02-07T17:46:39.474Z,97443.12
2019-02-07T17:48:41.130Z,97432.47
2019-02-07T17:50:42.743Z,97436.74
2019-02-07T17:52:44.359Z,97425.25
2019-02-07T17:54:46.322Z,97426.47
2019-02-07T17:56:47.973Z,97421.70
2019-02-07T17:58:50.341Z,97420.72
2019-02-07T18:01:06.843Z,97411.16
2019-02-07T18:03:08.460Z,97423.14
2019-02-07T18:05:10.066Z,97418.73
2019-02-07T18:07:11.662Z,97419.27
2019-02-07T18:09:13.300Z,97416.77
2019-02-07T18:11:14.943Z,97413.38
2019-02-07T18:13:16.550Z,97407.39
2019-02-07T18:15:18.261Z,97410.30
2019-02-07T18:17:19.965Z,97407.22
2019-02-07T18:19:21.580Z,97405.36
2019-02-07T18:21:33.652Z,97409.09
2019-02-07T18:23:24.881Z,97417.44
2019-02-07T18:25:26.481Z,97417.67
2019-02-07T18:27:28.140Z,97429.34
2019-02-07T18:29:29.746Z,97432.95
2019-02-07T18:31:31.353Z,97439.41
2019-02-07T18:33:32.992Z,97442.85
2019-02-07T18:35:34.664Z,97434.64
2019-02-07T18:37:36.275Z,97435.91
2019-02-07T18:39:38.090Z,97432.06
2019-02-07T18:41:39.747Z,97424.81
2019-02-07T18:43:41.409Z,97416.60
2019-02-07T18:45:43.022Z,97422.16
2019-02-07T18:47:44.656Z,97425.55
2019-02-07T18:49:46.262Z,97424.61
2019-02-07T18:51:48.029Z,97423.22
2019-02-07T18:53:49.694Z,97418.11
2019-02-07T18:55:51.317Z,97427.01
2019-02-07T18:57:52.917Z,97427.34
2019-02-07T18:59:54.565Z,97432.02
2019-02-07T19:01:56.221Z,97430.39
2019-02-07T19:03:57.845Z,97423.16
2019-02-07T19:05:59.454Z,97436.36
2019-02-07T19:08:01.059Z,97440.99
2019-02-07T19:10:02.669Z,97452.59
2019-02-07T19:12:04.300Z,97453.00
2019-02-07T19:14:05.926Z,97453.52
2019-02-07T19:16:07.527Z,97462.02
2019-02-07T19:18:09.140Z,97461.63
2019-02-07T19:20:12.495Z,97472.81
2019-02-07T19:22:12.430Z,97462.23
2019-02-07T19:24:14.035Z,97465.24
2019-02-07T19:26:15.669Z,97469.16
2019-02-07T19:28:17.262Z,97470.16
2019-02-07T19:30:18.863Z,97468.03
2019-02-07T19:32:20.477Z,97461.80
2019-02-07T19:34:22.148Z,97458.84
2019-02-07T19:36:23.756Z,97454.68
2019-02-07T19:38:25.424Z,97457.72
2019-02-07T19:40:27.029Z,97463.27
2019-02-07T19:42:28.695Z,97467.19
2019-02-07T19:44:30.334Z,97461.82
2019-02-07T19:46:31.934Z,97475.39
2019-02-07T19:48:33.542Z,97472.86
2019-02-07T19:50:35.197Z,97481.87
2019-02-07T19:52:39.555Z,97478.03
2019-02-07T19:54:38.991Z,97457.80
2019-02-07T19:56:40.651Z,97475.41
2019-02-07T19:58:42.255Z,97472.80
2019-02-07T20:00:43.864Z,97437.72
2019-02-07T20:02:45.473Z,97480.41
2019-02-07T20:04:47.087Z,97468.83
2019-02-07T20:06:48.685Z,97474.34
2019-02-07T20:08:50.319Z,97484.48
2019-02-07T20:10:51.953Z,97493.01
2019-02-07T20:12:53.576Z,97495.03
2019-02-07T20:14:55.201Z,97491.13
2019-02-07T20:16:56.824Z,97497.42
2019-02-07T20:18:58.467Z,97499.13
2019-02-07T20:21:00.082Z,97504.67
2019-02-07T20:23:01.723Z,97515.27
2019-02-07T20:25:03.397Z,97523.30
2019-02-07T20:27:05.012Z,97528.84
2019-02-07T20:29:06.739Z,97533.09
2019-02-07T20:31:08.435Z,97528.84
2019-02-07T20:33:10.113Z,97524.11
2019-02-07T20:35:11.717Z,97537.75
2019-02-07T20:37:13.343Z,97541.95
2019-02-07T20:39:15.218Z,97538.59
2019-02-07T20:41:16.817Z,97542.13
2019-02-07T20:43:18.426Z,97550.56
2019-02-07T20:45:20.069Z,97541.15
2019-02-07T20:47:21.679Z,97539.48
2019-02-07T20:49:23.306Z,97551.83
2019-02-07T20:51:24.913Z,97554.39
2019-02-07T20:53:26.535Z,97556.55
2019-02-07T20:55:28.196Z,97560.04
2019-02-07T20:57:29.836Z,97565.98
2019-02-07T20:59:31.442Z,97563.86
2019-02-07T21:01:33.090Z,97566.85
2019-02-07T21:03:34.697Z,97569.37
2019-02-07T21:05:36.313Z,97564.75
2019-02-07T21:07:37.960Z,97569.87
2019-02-07T21:09:39.677Z,97570.72
2019-02-07T21:11:41.352Z,97576.33
2019-02-07T21:13:42.977Z,97576.02
2019-02-07T21:15:44.596Z,97585.97
2019-02-07T21:17:46.220Z,97582.24
2019-02-07T21:19:47.833Z,97586.19
2019-02-07T21:21:49.486Z,97583.29
2019-02-07T21:23:51.085Z,97575.33
2019-02-07T21:25:52.708Z,97589.43
2019-02-07T21:27:54.357Z,97589.07
2019-02-07T21:29:55.981Z,97588.32
2019-02-07T21:31:57.595Z,97592.65
2019-02-07T21:33:59.197Z,97602.02
2019-02-07T21:36:00.809Z,97597.78
2019-02-07T21:38:02.403Z,97601.22
2019-02-07T21:40:04.048Z,97608.92
2019-02-07T21:42:05.644Z,97604.23
2019-02-07T21:44:07.258Z,97604.72
2019-02-07T21:46:08.917Z,97605.94
2019-02-07T21:48:10.536Z,97611.48
2019-02-07T21:50:12.150Z,97599.53
2019-02-07T21:52:13.793Z,97591.02
2019-02-07T21:54:15.421Z,97557.55
2019-02-07T21:56:17.026Z,97602.59
2019-02-07T21:58:18.648Z,97601.61
2019-02-07T22:00:20.258Z,97600.31
2019-02-07T22:02:21.914Z,97582.27
2019-02-07T22:04:23.562Z,97601.55
2019-02-07T22:06:25.161Z,97602.54
2019-02-07T22:08:26.761Z,97604.72
2019-02-07T22:10:28.428Z,97610.91
2019-02-07T22:12:30.033Z,97616.89
2019-02-07T22:14:31.653Z,97619.06
2019-02-07T22:16:33.242Z,97615.55
2019-02-07T22:18:34.889Z,97616.66
2019-02-07T22:20:36.531Z,97613.63
2019-02-07T22:22:38.183Z,97625.95
2019-02-07T22:24:39.790Z,97627.83
2019-02-07T22:26:41.403Z,97624.83
2019-02-07T22:28:43.461Z,97632.95
2019-02-07T22:30:45.066Z,97633.34
2019-02-07T22:32:46.661Z,97637.63
2019-02-07T22:34:48.290Z,97632.71
2019-02-07T22:36:49.895Z,97634.66
2019-02-07T22:38:51.497Z,97634.91
2019-02-07T22:40:53.107Z,97640.83
2019-02-07T22:42:54.711Z,97632.55
2019-02-07T22:44:56.377Z,97636.38
2019-02-07T22:46:57.981Z,97636.58
2019-02-07T22:48:59.590Z,97643.02
2019-02-07T22:51:01.220Z,97639.48
2019-02-07T22:53:02.903Z,97642.45
2019-02-07T22:55:04.530Z,97645.79
2019-02-07T22:57:06.151Z,97643.16
2019-02-07T22:59:07.767Z,97638.37
2019-02-07T23:01:09.393Z,97642.70
2019-02-07T23:03:10.983Z,97648.05
2019-02-07T23:05:12.598Z,97650.17
2019-02-07T23:07:14.250Z,97652.38
2019-02-07T23:09:15.904Z,97655.06
2019-02-07T23:11:17.574Z,97653.78
2019-02-07T23:13:19.185Z,97657.19
2019-02-07T23:15:20.817Z,97657.08
2019-02-07T23:17:22.432Z,97659.56
2019-02-07T23:19:24.287Z,97664.64
2019-02-07T23:21:25.890Z,97663.41
2019-02-07T23:23:27.496Z,97649.72
2019-02-07T23:25:29.131Z,97633.83
2019-02-07T23:27:30.781Z,97665.55
2019-02-07T23:29:32.415Z,97666.45
2019-02-07T23:31:34.019Z,97665.53
2019-02-07T23:33:35.635Z,97664.13
2019-02-07T23:35:37.334Z,97670.41
2019-02-07T23:37:38.946Z,97677.97
2019-02-07T23:39:40.550Z,97672.17
2019-02-07T23:41:42.150Z,97676.22
2019-02-07T23:43:46.048Z,97675.98
2019-02-07T23:45:45.417Z,97672.25
2019-02-07T23:47:47.055Z,97677.92
2019-02-07T23:49:48.685Z,97670.37
2019-02-07T23:51:50.286Z,97673.39
2019-02-07T23:53:51.885Z,97670.78
2019-02-07T23:55:53.534Z,97673.77
2019-02-07T23:57:55.142Z,97673.61
2019-02-07T23:59:56.770Z,97682.38
